sensor_id;sensor_type;location;lat;lon;timestamp;P1;durP1;ratioP1;P2;durP2;ratioP2
42866;SDS011;39461;40.948;73.006;2022-08-19T00:00:29;15.98;;;5.70;;
42866;SDS011;39461;40.948;73.006;2022-08-19T00:03:03;14.65;;;6.38;;
42866;SDS011;39461;40.948;73.006;2022-08-19T00:05:37;20.40;;;7.13;;
42866;SDS011;39461;40.948;73.006;2022-08-19T00:08:10;18.88;;;5.57;;
42866;SDS011;39461;40.948;73.006;2022-08-19T00:10:37;17.88;;;6.22;;
42866;SDS011;39461;40.948;73.006;2022-08-19T00:13:10;22.40;;;6.63;;
42866;SDS011;39461;40.948;73.006;2022-08-19T00:15:43;14.63;;;6.18;;
42866;SDS011;39461;40.948;73.006;2022-08-19T00:18:16;17.95;;;6.68;;
42866;SDS011;39461;40.948;73.006;2022-08-19T00:20:49;16.35;;;5.57;;
42866;SDS011;39461;40.948;73.006;2022-08-19T00:23:28;22.20;;;6.47;;
42866;SDS011;39461;40.948;73.006;2022-08-19T00:26:04;19.38;;;6.53;;
42866;SDS011;39461;40.948;73.006;2022-08-19T00:28:38;20.85;;;6.63;;
42866;SDS011;39461;40.948;73.006;2022-08-19T00:31:15;16.60;;;5.90;;
42866;SDS011;39461;40.948;73.006;2022-08-19T00:33:48;23.23;;;6.78;;
42866;SDS011;39461;40.948;73.006;2022-08-19T00:36:22;14.75;;;6.05;;
42866;SDS011;39461;40.948;73.006;2022-08-19T00:38:57;22.30;;;6.07;;
42866;SDS011;39461;40.948;73.006;2022-08-19T00:41:32;13.45;;;6.78;;
42866;SDS011;39461;40.948;73.006;2022-08-19T00:44:10;21.75;;;8.15;;
42866;SDS011;39461;40.948;73.006;2022-08-19T00:46:45;25.42;;;10.60;;
42866;SDS011;39461;40.948;73.006;2022-08-19T00:49:32;19.73;;;7.78;;
42866;SDS011;39461;40.948;73.006;2022-08-19T00:52:09;23.25;;;11.10;;
42866;SDS011;39461;40.948;73.006;2022-08-19T00:54:46;26.90;;;11.65;;
42866;SDS011;39461;40.948;73.006;2022-08-19T00:57:22;25.30;;;9.23;;
42866;SDS011;39461;40.948;73.006;2022-08-19T00:59:59;19.48;;;7.18;;
42866;SDS011;39461;40.948;73.006;2022-08-19T01:02:41;20.58;;;6.05;;
42866;SDS011;39461;40.948;73.006;2022-08-19T01:05:16;17.77;;;6.47;;
42866;SDS011;39461;40.948;73.006;2022-08-19T01:07:51;18.55;;;6.20;;
42866;SDS011;39461;40.948;73.006;2022-08-19T01:10:25;21.67;;;6.72;;
42866;SDS011;39461;40.948;73.006;2022-08-19T01:12:57;19.02;;;6.35;;
42866;SDS011;39461;40.948;73.006;2022-08-19T01:15:32;21.15;;;6.85;;
42866;SDS011;39461;40.948;73.006;2022-08-19T01:18:16;24.25;;;7.30;;
42866;SDS011;39461;40.948;73.006;2022-08-19T01:20:51;17.58;;;7.65;;
42866;SDS011;39461;40.948;73.006;2022-08-19T01:23:30;27.33;;;8.52;;
42866;SDS011;39461;40.948;73.006;2022-08-19T01:26:16;30.27;;;9.68;;
42866;SDS011;39461;40.948;73.006;2022-08-19T01:28:52;23.25;;;8.73;;
42866;SDS011;39461;40.948;73.006;2022-08-19T01:31:26;21.02;;;9.23;;
42866;SDS011;39461;40.948;73.006;2022-08-19T01:34:02;24.27;;;9.40;;
42866;SDS011;39461;40.948;73.006;2022-08-19T01:36:41;19.60;;;8.07;;
42866;SDS011;39461;40.948;73.006;2022-08-19T01:39:24;24.13;;;8.20;;
42866;SDS011;39461;40.948;73.006;2022-08-19T01:41:58;21.45;;;8.40;;
42866;SDS011;39461;40.948;73.006;2022-08-19T01:44:39;17.27;;;8.13;;
42866;SDS011;39461;40.948;73.006;2022-08-19T01:47:17;23.17;;;8.80;;
42866;SDS011;39461;40.948;73.006;2022-08-19T01:49:52;19.77;;;7.68;;
42866;SDS011;39461;40.948;73.006;2022-08-19T01:52:26;22.65;;;7.60;;
42866;SDS011;39461;40.948;73.006;2022-08-19T01:54:53;30.98;;;9.00;;
42866;SDS011;39461;40.948;73.006;2022-08-19T01:57:28;34.80;;;9.48;;
42866;SDS011;39461;40.948;73.006;2022-08-19T02:00:07;24.42;;;8.70;;
42866;SDS011;39461;40.948;73.006;2022-08-19T02:02:43;23.80;;;11.00;;
42866;SDS011;39461;40.948;73.006;2022-08-19T02:05:16;21.85;;;8.60;;
42866;SDS011;39461;40.948;73.006;2022-08-19T02:07:52;22.58;;;8.23;;
42866;SDS011;39461;40.948;73.006;2022-08-19T02:10:26;26.50;;;9.50;;
42866;SDS011;39461;40.948;73.006;2022-08-19T02:13:01;20.88;;;8.73;;
42866;SDS011;39461;40.948;73.006;2022-08-19T02:15:30;19.15;;;8.32;;
42866;SDS011;39461;40.948;73.006;2022-08-19T02:18:04;24.67;;;9.93;;
42866;SDS011;39461;40.948;73.006;2022-08-19T02:20:37;24.05;;;9.95;;
42866;SDS011;39461;40.948;73.006;2022-08-19T02:23:13;29.52;;;10.27;;
42866;SDS011;39461;40.948;73.006;2022-08-19T02:25:48;55.70;;;15.90;;
42866;SDS011;39461;40.948;73.006;2022-08-19T02:28:23;55.28;;;16.40;;
42866;SDS011;39461;40.948;73.006;2022-08-19T02:30:56;49.35;;;16.38;;
42866;SDS011;39461;40.948;73.006;2022-08-19T02:33:31;59.10;;;21.70;;
42866;SDS011;39461;40.948;73.006;2022-08-19T02:36:07;71.05;;;22.27;;
42866;SDS011;39461;40.948;73.006;2022-08-19T02:38:41;49.50;;;17.88;;
42866;SDS011;39461;40.948;73.006;2022-08-19T02:41:22;27.80;;;12.43;;
42866;SDS011;39461;40.948;73.006;2022-08-19T02:44:00;40.53;;;14.90;;
42866;SDS011;39461;40.948;73.006;2022-08-19T02:46:36;37.53;;;15.65;;
42866;SDS011;39461;40.948;73.006;2022-08-19T02:49:09;43.55;;;19.05;;
42866;SDS011;39461;40.948;73.006;2022-08-19T02:51:43;47.67;;;18.40;;
42866;SDS011;39461;40.948;73.006;2022-08-19T02:54:17;49.75;;;17.48;;
42866;SDS011;39461;40.948;73.006;2022-08-19T02:56:51;30.77;;;15.15;;
42866;SDS011;39461;40.948;73.006;2022-08-19T02:59:17;39.80;;;14.70;;
42866;SDS011;39461;40.948;73.006;2022-08-19T03:01:52;39.88;;;14.90;;
42866;SDS011;39461;40.948;73.006;2022-08-19T03:07:26;39.45;;;13.88;;
42866;SDS011;39461;40.948;73.006;2022-08-19T03:10:01;39.83;;;13.90;;
42866;SDS011;39461;40.948;73.006;2022-08-19T03:12:36;37.55;;;14.35;;
42866;SDS011;39461;40.948;73.006;2022-08-19T03:15:10;38.17;;;14.70;;
42866;SDS011;39461;40.948;73.006;2022-08-19T03:17:47;45.08;;;14.88;;
42866;SDS011;39461;40.948;73.006;2022-08-19T03:20:20;32.88;;;13.50;;
42866;SDS011;39461;40.948;73.006;2022-08-19T03:22:46;38.13;;;15.13;;
42866;SDS011;39461;40.948;73.006;2022-08-19T03:25:15;37.17;;;15.45;;
42866;SDS011;39461;40.948;73.006;2022-08-19T03:27:44;43.58;;;14.57;;
42866;SDS011;39461;40.948;73.006;2022-08-19T03:30:20;30.50;;;13.02;;
42866;SDS011;39461;40.948;73.006;2022-08-19T03:32:57;32.75;;;12.38;;
42866;SDS011;39461;40.948;73.006;2022-08-19T03:35:32;36.42;;;12.35;;
42866;SDS011;39461;40.948;73.006;2022-08-19T03:38:11;32.92;;;12.32;;
42866;SDS011;39461;40.948;73.006;2022-08-19T03:40:44;26.23;;;10.75;;
42866;SDS011;39461;40.948;73.006;2022-08-19T03:43:17;25.85;;;10.82;;
42866;SDS011;39461;40.948;73.006;2022-08-19T03:45:59;31.70;;;11.40;;
42866;SDS011;39461;40.948;73.006;2022-08-19T03:48:34;27.05;;;10.35;;
42866;SDS011;39461;40.948;73.006;2022-08-19T03:51:01;26.27;;;9.23;;
42866;SDS011;39461;40.948;73.006;2022-08-19T03:53:37;28.05;;;10.55;;
42866;SDS011;39461;40.948;73.006;2022-08-19T03:56:08;31.10;;;10.43;;
42866;SDS011;39461;40.948;73.006;2022-08-19T03:58:41;18.10;;;6.63;;
42866;SDS011;39461;40.948;73.006;2022-08-19T04:01:18;19.10;;;6.25;;
42866;SDS011;39461;40.948;73.006;2022-08-19T04:03:57;42.05;;;11.05;;
42866;SDS011;39461;40.948;73.006;2022-08-19T04:06:32;57.22;;;25.30;;
42866;SDS011;39461;40.948;73.006;2022-08-19T04:12:10;43.70;;;19.60;;
42866;SDS011;39461;40.948;73.006;2022-08-19T04:14:43;34.50;;;15.57;;
42866;SDS011;39461;40.948;73.006;2022-08-19T04:17:16;39.22;;;15.07;;
42866;SDS011;39461;40.948;73.006;2022-08-19T04:19:51;33.17;;;14.43;;
42866;SDS011;39461;40.948;73.006;2022-08-19T04:22:24;32.30;;;12.00;;
42866;SDS011;39461;40.948;73.006;2022-08-19T04:24:57;27.38;;;10.20;;
42866;SDS011;39461;40.948;73.006;2022-08-19T04:27:31;22.17;;;10.73;;
42866;SDS011;39461;40.948;73.006;2022-08-19T04:30:05;46.58;;;16.13;;
42866;SDS011;39461;40.948;73.006;2022-08-19T04:32:38;31.70;;;15.77;;
42866;SDS011;39461;40.948;73.006;2022-08-19T04:35:15;33.80;;;14.68;;
42866;SDS011;39461;40.948;73.006;2022-08-19T04:37:50;34.20;;;11.10;;
42866;SDS011;39461;40.948;73.006;2022-08-19T04:40:24;22.80;;;9.52;;
42866;SDS011;39461;40.948;73.006;2022-08-19T04:43:16;26.42;;;8.40;;
42866;SDS011;39461;40.948;73.006;2022-08-19T04:45:46;26.20;;;8.52;;
42866;SDS011;39461;40.948;73.006;2022-08-19T04:48:19;21.05;;;8.18;;
42866;SDS011;39461;40.948;73.006;2022-08-19T04:50:59;21.90;;;9.90;;
42866;SDS011;39461;40.948;73.006;2022-08-19T04:53:26;19.45;;;7.38;;
42866;SDS011;39461;40.948;73.006;2022-08-19T04:56:12;15.23;;;6.20;;
42866;SDS011;39461;40.948;73.006;2022-08-19T04:58:47;25.95;;;5.25;;
42866;SDS011;39461;40.948;73.006;2022-08-19T05:01:23;14.52;;;5.60;;
42866;SDS011;39461;40.948;73.006;2022-08-19T05:04:05;26.00;;;7.35;;
42866;SDS011;39461;40.948;73.006;2022-08-19T05:06:38;15.20;;;6.00;;
42866;SDS011;39461;40.948;73.006;2022-08-19T05:09:14;25.48;;;5.30;;
42866;SDS011;39461;40.948;73.006;2022-08-19T05:11:48;18.80;;;7.80;;
42866;SDS011;39461;40.948;73.006;2022-08-19T05:14:30;22.00;;;8.10;;
42866;SDS011;39461;40.948;73.006;2022-08-19T05:17:05;19.17;;;6.95;;
42866;SDS011;39461;40.948;73.006;2022-08-19T05:19:38;19.67;;;5.47;;
42866;SDS011;39461;40.948;73.006;2022-08-19T05:22:31;27.50;;;5.22;;
42866;SDS011;39461;40.948;73.006;2022-08-19T05:25:06;20.08;;;5.38;;
42866;SDS011;39461;40.948;73.006;2022-08-19T05:27:41;17.35;;;4.72;;
42866;SDS011;39461;40.948;73.006;2022-08-19T05:30:15;14.52;;;4.10;;
42866;SDS011;39461;40.948;73.006;2022-08-19T05:32:51;15.95;;;4.88;;
42866;SDS011;39461;40.948;73.006;2022-08-19T05:35:29;20.75;;;5.55;;
42866;SDS011;39461;40.948;73.006;2022-08-19T05:38:05;27.75;;;5.78;;
42866;SDS011;39461;40.948;73.006;2022-08-19T05:40:42;23.27;;;5.20;;
42866;SDS011;39461;40.948;73.006;2022-08-19T05:43:19;13.57;;;4.80;;
42866;SDS011;39461;40.948;73.006;2022-08-19T05:45:51;21.92;;;5.22;;
42866;SDS011;39461;40.948;73.006;2022-08-19T05:48:24;20.63;;;4.88;;
42866;SDS011;39461;40.948;73.006;2022-08-19T05:50:58;24.08;;;5.18;;
42866;SDS011;39461;40.948;73.006;2022-08-19T05:53:37;32.35;;;5.93;;
42866;SDS011;39461;40.948;73.006;2022-08-19T05:56:06;26.55;;;6.43;;
42866;SDS011;39461;40.948;73.006;2022-08-19T05:58:41;20.40;;;5.40;;
42866;SDS011;39461;40.948;73.006;2022-08-19T06:01:11;20.70;;;5.13;;
42866;SDS011;39461;40.948;73.006;2022-08-19T06:03:42;17.92;;;5.32;;
42866;SDS011;39461;40.948;73.006;2022-08-19T06:06:12;18.48;;;6.45;;
42866;SDS011;39461;40.948;73.006;2022-08-19T06:08:51;22.63;;;9.60;;
42866;SDS011;39461;40.948;73.006;2022-08-19T06:14:13;25.27;;;6.82;;
42866;SDS011;39461;40.948;73.006;2022-08-19T06:16:48;24.63;;;5.45;;
42866;SDS011;39461;40.948;73.006;2022-08-19T06:19:25;18.63;;;5.60;;
42866;SDS011;39461;40.948;73.006;2022-08-19T06:22:00;23.35;;;5.28;;
42866;SDS011;39461;40.948;73.006;2022-08-19T06:24:35;14.68;;;4.72;;
42866;SDS011;39461;40.948;73.006;2022-08-19T06:27:10;15.50;;;5.15;;
42866;SDS011;39461;40.948;73.006;2022-08-19T06:29:44;20.50;;;6.32;;
42866;SDS011;39461;40.948;73.006;2022-08-19T06:32:20;19.25;;;4.55;;
42866;SDS011;39461;40.948;73.006;2022-08-19T06:34:53;15.23;;;4.88;;
42866;SDS011;39461;40.948;73.006;2022-08-19T06:37:20;29.50;;;5.00;;
42866;SDS011;39461;40.948;73.006;2022-08-19T06:39:49;18.27;;;5.60;;
42866;SDS011;39461;40.948;73.006;2022-08-19T06:42:22;22.77;;;6.43;;
42866;SDS011;39461;40.948;73.006;2022-08-19T06:44:49;20.83;;;5.45;;
42866;SDS011;39461;40.948;73.006;2022-08-19T06:47:17;23.38;;;5.03;;
42866;SDS011;39461;40.948;73.006;2022-08-19T06:49:48;19.75;;;5.30;;
42866;SDS011;39461;40.948;73.006;2022-08-19T06:52:21;17.15;;;4.68;;
42866;SDS011;39461;40.948;73.006;2022-08-19T06:54:55;16.90;;;4.78;;
42866;SDS011;39461;40.948;73.006;2022-08-19T06:57:25;21.15;;;4.68;;
42866;SDS011;39461;40.948;73.006;2022-08-19T07:00:05;18.25;;;4.80;;
42866;SDS011;39461;40.948;73.006;2022-08-19T07:02:43;23.73;;;4.70;;
42866;SDS011;39461;40.948;73.006;2022-08-19T07:05:12;22.55;;;4.70;;
42866;SDS011;39461;40.948;73.006;2022-08-19T07:07:45;25.13;;;5.05;;
42866;SDS011;39461;40.948;73.006;2022-08-19T07:10:19;22.42;;;5.20;;
42866;SDS011;39461;40.948;73.006;2022-08-19T07:12:53;25.55;;;7.55;;
42866;SDS011;39461;40.948;73.006;2022-08-19T07:15:28;16.08;;;4.57;;
42866;SDS011;39461;40.948;73.006;2022-08-19T07:18:03;17.35;;;4.50;;
42866;SDS011;39461;40.948;73.006;2022-08-19T07:20:39;14.43;;;3.75;;
42866;SDS011;39461;40.948;73.006;2022-08-19T07:23:12;27.23;;;5.47;;
42866;SDS011;39461;40.948;73.006;2022-08-19T07:25:47;17.42;;;4.32;;
42866;SDS011;39461;40.948;73.006;2022-08-19T07:28:26;15.00;;;4.07;;
42866;SDS011;39461;40.948;73.006;2022-08-19T07:31:01;14.63;;;4.53;;
42866;SDS011;39461;40.948;73.006;2022-08-19T07:33:37;16.15;;;4.60;;
42866;SDS011;39461;40.948;73.006;2022-08-19T07:36:11;26.48;;;5.25;;
42866;SDS011;39461;40.948;73.006;2022-08-19T07:38:46;27.20;;;4.78;;
42866;SDS011;39461;40.948;73.006;2022-08-19T07:41:21;13.60;;;3.83;;
42866;SDS011;39461;40.948;73.006;2022-08-19T07:43:51;26.30;;;4.43;;
42866;SDS011;39461;40.948;73.006;2022-08-19T07:46:18;14.75;;;3.80;;
42866;SDS011;39461;40.948;73.006;2022-08-19T07:48:57;22.35;;;6.00;;
42866;SDS011;39461;40.948;73.006;2022-08-19T07:51:32;20.80;;;4.13;;
42866;SDS011;39461;40.948;73.006;2022-08-19T07:54:00;22.05;;;4.72;;
42866;SDS011;39461;40.948;73.006;2022-08-19T07:56:30;12.35;;;3.72;;
42866;SDS011;39461;40.948;73.006;2022-08-19T07:59:03;21.05;;;4.45;;
42866;SDS011;39461;40.948;73.006;2022-08-19T08:01:37;19.40;;;4.80;;
42866;SDS011;39461;40.948;73.006;2022-08-19T08:04:07;19.98;;;4.63;;
42866;SDS011;39461;40.948;73.006;2022-08-19T08:07:05;12.23;;;4.20;;
42866;SDS011;39461;40.948;73.006;2022-08-19T08:09:59;17.73;;;4.32;;
42866;SDS011;39461;40.948;73.006;2022-08-19T08:12:35;18.88;;;4.07;;
42866;SDS011;39461;40.948;73.006;2022-08-19T08:15:15;23.58;;;4.78;;
42866;SDS011;39461;40.948;73.006;2022-08-19T08:17:48;26.35;;;5.72;;
42866;SDS011;39461;40.948;73.006;2022-08-19T08:20:21;16.83;;;4.97;;
42866;SDS011;39461;40.948;73.006;2022-08-19T08:22:56;21.63;;;5.32;;
42866;SDS011;39461;40.948;73.006;2022-08-19T08:25:49;15.57;;;5.25;;
42866;SDS011;39461;40.948;73.006;2022-08-19T08:28:22;31.02;;;5.18;;
42866;SDS011;39461;40.948;73.006;2022-08-19T08:30:55;24.00;;;5.20;;
42866;SDS011;39461;40.948;73.006;2022-08-19T08:33:31;20.45;;;5.28;;
42866;SDS011;39461;40.948;73.006;2022-08-19T08:38:59;13.88;;;4.72;;
42866;SDS011;39461;40.948;73.006;2022-08-19T08:47:11;22.88;;;5.40;;
42866;SDS011;39461;40.948;73.006;2022-08-19T08:55:04;24.92;;;5.53;;
42866;SDS011;39461;40.948;73.006;2022-08-19T09:00:32;16.80;;;5.13;;
42866;SDS011;39461;40.948;73.006;2022-08-19T09:06:03;19.25;;;4.65;;
42866;SDS011;39461;40.948;73.006;2022-08-19T09:11:39;16.55;;;5.40;;
42866;SDS011;39461;40.948;73.006;2022-08-19T09:14:49;28.98;;;5.90;;
42866;SDS011;39461;40.948;73.006;2022-08-19T09:17:30;27.70;;;6.03;;
42866;SDS011;39461;40.948;73.006;2022-08-19T09:20:04;23.27;;;5.05;;
42866;SDS011;39461;40.948;73.006;2022-08-19T09:22:48;23.83;;;5.80;;
42866;SDS011;39461;40.948;73.006;2022-08-19T09:25:21;20.52;;;5.28;;
42866;SDS011;39461;40.948;73.006;2022-08-19T09:27:57;22.98;;;5.60;;
42866;SDS011;39461;40.948;73.006;2022-08-19T09:30:39;21.55;;;5.50;;
42866;SDS011;39461;40.948;73.006;2022-08-19T09:33:15;24.30;;;6.15;;
42866;SDS011;39461;40.948;73.006;2022-08-19T09:35:48;19.52;;;5.70;;
42866;SDS011;39461;40.948;73.006;2022-08-19T09:38:21;28.63;;;6.55;;
42866;SDS011;39461;40.948;73.006;2022-08-19T09:40:53;13.25;;;6.07;;
42866;SDS011;39461;40.948;73.006;2022-08-19T09:43:20;30.95;;;7.05;;
42866;SDS011;39461;40.948;73.006;2022-08-19T09:45:47;19.10;;;5.47;;
42866;SDS011;39461;40.948;73.006;2022-08-19T09:48:20;25.20;;;6.50;;
42866;SDS011;39461;40.948;73.006;2022-08-19T09:50:53;21.17;;;5.53;;
42866;SDS011;39461;40.948;73.006;2022-08-19T09:53:28;24.35;;;6.07;;
42866;SDS011;39461;40.948;73.006;2022-08-19T09:55:54;17.75;;;5.45;;
42866;SDS011;39461;40.948;73.006;2022-08-19T09:58:28;23.08;;;6.47;;
42866;SDS011;39461;40.948;73.006;2022-08-19T10:01:04;19.00;;;5.38;;
42866;SDS011;39461;40.948;73.006;2022-08-19T10:03:39;20.48;;;5.88;;
42866;SDS011;39461;40.948;73.006;2022-08-19T10:09:14;17.08;;;5.50;;
42866;SDS011;39461;40.948;73.006;2022-08-19T10:11:51;26.25;;;6.75;;
42866;SDS011;39461;40.948;73.006;2022-08-19T10:14:24;32.70;;;8.90;;
42866;SDS011;39461;40.948;73.006;2022-08-19T10:17:03;20.48;;;6.50;;
42866;SDS011;39461;40.948;73.006;2022-08-19T10:19:38;25.13;;;6.53;;
42866;SDS011;39461;40.948;73.006;2022-08-19T10:22:12;20.05;;;7.78;;
42866;SDS011;39461;40.948;73.006;2022-08-19T10:24:46;29.48;;;7.43;;
42866;SDS011;39461;40.948;73.006;2022-08-19T10:27:19;22.60;;;8.70;;
42866;SDS011;39461;40.948;73.006;2022-08-19T10:29:52;24.15;;;6.70;;
42866;SDS011;39461;40.948;73.006;2022-08-19T10:32:25;26.50;;;6.13;;
42866;SDS011;39461;40.948;73.006;2022-08-19T10:34:59;21.20;;;5.55;;
42866;SDS011;39461;40.948;73.006;2022-08-19T10:37:36;18.70;;;5.88;;
42866;SDS011;39461;40.948;73.006;2022-08-19T10:40:04;18.42;;;5.82;;
42866;SDS011;39461;40.948;73.006;2022-08-19T10:42:38;20.65;;;6.18;;
42866;SDS011;39461;40.948;73.006;2022-08-19T10:45:11;14.50;;;5.40;;
42866;SDS011;39461;40.948;73.006;2022-08-19T10:47:44;19.52;;;5.88;;
42866;SDS011;39461;40.948;73.006;2022-08-19T10:50:20;19.95;;;5.32;;
42866;SDS011;39461;40.948;73.006;2022-08-19T10:53:14;17.20;;;5.40;;
42866;SDS011;39461;40.948;73.006;2022-08-19T10:55:47;18.27;;;6.43;;
42866;SDS011;39461;40.948;73.006;2022-08-19T10:58:32;29.20;;;5.97;;
42866;SDS011;39461;40.948;73.006;2022-08-19T11:01:05;24.95;;;7.10;;
42866;SDS011;39461;40.948;73.006;2022-08-19T11:03:38;25.58;;;10.20;;
42866;SDS011;39461;40.948;73.006;2022-08-19T11:06:07;20.00;;;7.60;;
42866;SDS011;39461;40.948;73.006;2022-08-19T11:08:41;23.52;;;6.32;;
42866;SDS011;39461;40.948;73.006;2022-08-19T11:11:17;28.80;;;7.07;;
42866;SDS011;39461;40.948;73.006;2022-08-19T11:13:50;18.45;;;5.78;;
42866;SDS011;39461;40.948;73.006;2022-08-19T11:16:25;19.13;;;6.22;;
42866;SDS011;39461;40.948;73.006;2022-08-19T11:22:01;33.72;;;6.45;;
42866;SDS011;39461;40.948;73.006;2022-08-19T11:24:36;21.17;;;6.68;;
42866;SDS011;39461;40.948;73.006;2022-08-19T11:30:15;26.75;;;6.28;;
42866;SDS011;39461;40.948;73.006;2022-08-19T11:32:48;28.92;;;8.23;;
42866;SDS011;39461;40.948;73.006;2022-08-19T11:35:16;28.33;;;7.30;;
42866;SDS011;39461;40.948;73.006;2022-08-19T11:37:51;26.27;;;7.38;;
42866;SDS011;39461;40.948;73.006;2022-08-19T11:40:25;25.95;;;8.23;;
42866;SDS011;39461;40.948;73.006;2022-08-19T11:42:55;26.75;;;9.18;;
42866;SDS011;39461;40.948;73.006;2022-08-19T11:45:28;29.92;;;9.90;;
42866;SDS011;39461;40.948;73.006;2022-08-19T11:48:00;34.00;;;9.70;;
42866;SDS011;39461;40.948;73.006;2022-08-19T11:50:34;35.08;;;9.80;;
42866;SDS011;39461;40.948;73.006;2022-08-19T11:53:09;33.92;;;9.55;;
42866;SDS011;39461;40.948;73.006;2022-08-19T11:55:37;35.75;;;9.20;;
42866;SDS011;39461;40.948;73.006;2022-08-19T11:58:08;31.40;;;9.90;;
42866;SDS011;39461;40.948;73.006;2022-08-19T12:00:39;36.67;;;9.98;;
42866;SDS011;39461;40.948;73.006;2022-08-19T12:03:12;29.60;;;8.77;;
42866;SDS011;39461;40.948;73.006;2022-08-19T12:05:46;30.00;;;9.43;;
42866;SDS011;39461;40.948;73.006;2022-08-19T12:08:20;25.55;;;8.75;;
42866;SDS011;39461;40.948;73.006;2022-08-19T12:10:53;28.10;;;9.52;;
42866;SDS011;39461;40.948;73.006;2022-08-19T12:13:19;31.80;;;8.98;;
42866;SDS011;39461;40.948;73.006;2022-08-19T12:15:54;29.35;;;9.30;;
42866;SDS011;39461;40.948;73.006;2022-08-19T12:18:28;27.35;;;9.05;;
42866;SDS011;39461;40.948;73.006;2022-08-19T12:21:01;20.45;;;8.25;;
42866;SDS011;39461;40.948;73.006;2022-08-19T12:23:31;31.80;;;8.10;;
42866;SDS011;39461;40.948;73.006;2022-08-19T12:26:06;36.13;;;8.77;;
42866;SDS011;39461;40.948;73.006;2022-08-19T12:28:43;24.15;;;7.75;;
42866;SDS011;39461;40.948;73.006;2022-08-19T12:31:13;24.50;;;7.65;;
42866;SDS011;39461;40.948;73.006;2022-08-19T12:33:40;23.05;;;7.53;;
42866;SDS011;39461;40.948;73.006;2022-08-19T12:36:10;32.03;;;9.57;;
42866;SDS011;39461;40.948;73.006;2022-08-19T12:38:40;32.08;;;9.70;;
42866;SDS011;39461;40.948;73.006;2022-08-19T12:41:16;30.58;;;9.77;;
42866;SDS011;39461;40.948;73.006;2022-08-19T12:43:55;33.15;;;9.35;;
42866;SDS011;39461;40.948;73.006;2022-08-19T12:46:35;20.90;;;7.72;;
42866;SDS011;39461;40.948;73.006;2022-08-19T12:49:10;32.13;;;8.38;;
42866;SDS011;39461;40.948;73.006;2022-08-19T12:51:44;27.88;;;8.05;;
42866;SDS011;39461;40.948;73.006;2022-08-19T12:54:14;26.80;;;7.28;;
42866;SDS011;39461;40.948;73.006;2022-08-19T12:56:47;21.92;;;6.95;;
42866;SDS011;39461;40.948;73.006;2022-08-19T12:59:23;20.15;;;6.63;;
42866;SDS011;39461;40.948;73.006;2022-08-19T13:01:58;28.98;;;7.32;;
42866;SDS011;39461;40.948;73.006;2022-08-19T13:04:27;23.85;;;7.55;;
42866;SDS011;39461;40.948;73.006;2022-08-19T13:06:54;26.23;;;7.00;;
42866;SDS011;39461;40.948;73.006;2022-08-19T13:09:29;31.83;;;8.10;;
42866;SDS011;39461;40.948;73.006;2022-08-19T13:12:04;24.67;;;7.05;;
42866;SDS011;39461;40.948;73.006;2022-08-19T13:14:44;21.30;;;7.85;;
42866;SDS011;39461;40.948;73.006;2022-08-19T13:17:16;30.60;;;8.20;;
42866;SDS011;39461;40.948;73.006;2022-08-19T13:19:43;27.75;;;7.88;;
42866;SDS011;39461;40.948;73.006;2022-08-19T13:22:14;26.92;;;8.00;;
42866;SDS011;39461;40.948;73.006;2022-08-19T13:24:47;26.25;;;8.13;;
42866;SDS011;39461;40.948;73.006;2022-08-19T13:27:14;24.92;;;8.15;;
42866;SDS011;39461;40.948;73.006;2022-08-19T13:29:47;29.88;;;9.50;;
42866;SDS011;39461;40.948;73.006;2022-08-19T13:32:38;26.63;;;10.25;;
42866;SDS011;39461;40.948;73.006;2022-08-19T13:35:29;37.17;;;10.05;;
42866;SDS011;39461;40.948;73.006;2022-08-19T13:38:02;26.98;;;8.50;;
42866;SDS011;39461;40.948;73.006;2022-08-19T13:40:30;28.40;;;8.95;;
42866;SDS011;39461;40.948;73.006;2022-08-19T13:43:09;35.20;;;8.30;;
42866;SDS011;39461;40.948;73.006;2022-08-19T13:45:42;36.33;;;8.52;;
42866;SDS011;39461;40.948;73.006;2022-08-19T13:48:15;34.55;;;9.57;;
42866;SDS011;39461;40.948;73.006;2022-08-19T13:50:43;34.85;;;14.60;;
42866;SDS011;39461;40.948;73.006;2022-08-19T13:53:18;41.10;;;13.75;;
42866;SDS011;39461;40.948;73.006;2022-08-19T13:55:45;46.35;;;13.20;;
42866;SDS011;39461;40.948;73.006;2022-08-19T13:58:18;45.75;;;13.05;;
42866;SDS011;39461;40.948;73.006;2022-08-19T14:00:51;34.47;;;14.40;;
42866;SDS011;39461;40.948;73.006;2022-08-19T14:03:27;40.95;;;13.90;;
42866;SDS011;39461;40.948;73.006;2022-08-19T14:06:00;41.03;;;13.10;;
42866;SDS011;39461;40.948;73.006;2022-08-19T14:08:33;47.05;;;15.07;;
42866;SDS011;39461;40.948;73.006;2022-08-19T14:11:06;46.80;;;15.70;;
42866;SDS011;39461;40.948;73.006;2022-08-19T14:13:42;38.83;;;14.13;;
42866;SDS011;39461;40.948;73.006;2022-08-19T14:16:17;44.03;;;15.35;;
42866;SDS011;39461;40.948;73.006;2022-08-19T14:18:44;43.95;;;15.75;;
42866;SDS011;39461;40.948;73.006;2022-08-19T14:21:18;44.40;;;16.65;;
42866;SDS011;39461;40.948;73.006;2022-08-19T14:23:54;51.55;;;18.75;;
42866;SDS011;39461;40.948;73.006;2022-08-19T14:26:29;44.70;;;20.63;;
42866;SDS011;39461;40.948;73.006;2022-08-19T14:28:56;52.80;;;19.73;;
42866;SDS011;39461;40.948;73.006;2022-08-19T14:31:29;57.78;;;21.63;;
42866;SDS011;39461;40.948;73.006;2022-08-19T14:34:02;76.57;;;28.55;;
42866;SDS011;39461;40.948;73.006;2022-08-19T14:36:28;66.88;;;29.38;;
42866;SDS011;39461;40.948;73.006;2022-08-19T14:39:04;61.47;;;27.50;;
42866;SDS011;39461;40.948;73.006;2022-08-19T14:41:39;75.97;;;26.48;;
42866;SDS011;39461;40.948;73.006;2022-08-19T14:44:14;65.82;;;24.15;;
42866;SDS011;39461;40.948;73.006;2022-08-19T14:46:40;51.42;;;19.52;;
42866;SDS011;39461;40.948;73.006;2022-08-19T14:49:07;77.20;;;23.67;;
42866;SDS011;39461;40.948;73.006;2022-08-19T14:51:52;62.03;;;20.38;;
42866;SDS011;39461;40.948;73.006;2022-08-19T14:54:19;68.78;;;18.73;;
42866;SDS011;39461;40.948;73.006;2022-08-19T14:56:52;53.88;;;18.48;;
42866;SDS011;39461;40.948;73.006;2022-08-19T14:59:18;57.53;;;19.35;;
42866;SDS011;39461;40.948;73.006;2022-08-19T15:01:52;58.75;;;19.00;;
42866;SDS011;39461;40.948;73.006;2022-08-19T15:04:27;49.63;;;20.27;;
42866;SDS011;39461;40.948;73.006;2022-08-19T15:06:56;51.72;;;19.80;;
42866;SDS011;39461;40.948;73.006;2022-08-19T15:09:26;55.10;;;18.33;;
42866;SDS011;39461;40.948;73.006;2022-08-19T15:12:00;47.42;;;17.08;;
42866;SDS011;39461;40.948;73.006;2022-08-19T15:14:35;40.88;;;16.15;;
42866;SDS011;39461;40.948;73.006;2022-08-19T15:17:11;47.50;;;17.23;;
42866;SDS011;39461;40.948;73.006;2022-08-19T15:22:46;47.72;;;17.27;;
42866;SDS011;39461;40.948;73.006;2022-08-19T15:25:21;42.03;;;14.70;;
42866;SDS011;39461;40.948;73.006;2022-08-19T15:27:54;52.45;;;17.00;;
42866;SDS011;39461;40.948;73.006;2022-08-19T15:30:28;60.70;;;19.00;;
42866;SDS011;39461;40.948;73.006;2022-08-19T15:32:56;63.28;;;20.27;;
42866;SDS011;39461;40.948;73.006;2022-08-19T15:35:30;64.18;;;21.15;;
42866;SDS011;39461;40.948;73.006;2022-08-19T15:38:04;68.22;;;21.02;;
42866;SDS011;39461;40.948;73.006;2022-08-19T15:40:39;53.47;;;20.42;;
42866;SDS011;39461;40.948;73.006;2022-08-19T15:43:14;69.35;;;21.05;;